Time;durP1;ratioP1;P1;durP2;ratioP2;P2;SDS_P1;SDS_P2;PMS_P1;PMS_P2;Temp;Humidity;BMP_temperature;BMP_pressure;BME280_temperature;BME280_humidity;BME280_pressure;Samples;Min_cycle;Max_cycle;Signal;HPM_P1;HPM_P2
2022/11/07 00:00:37;;;;;;;19.93;11.90;;;12.10;63.40;;;;;;5088074;28;20479;-91
2022/11/07 00:03:04;;;;;;;20.70;14.03;;;12.20;63.20;;;;;;5098509;28;20470;-89
2022/11/07 00:05:32;;;;;;;20.67;13.40;;;12.10;63.80;;;;;;5103048;28;20458;-90
2022/11/07 00:07:59;;;;;;;14.00;9.40;;;12.10;63.20;;;;;;5086950;28;20457;-90
2022/11/07 00:10:26;;;;;;;8.90;6.43;;;12.00;63.10;;;;;;5080007;28;20472;-88
2022/11/07 00:12:53;;;;;;;5.00;3.90;;;12.10;62.90;;;;;;5079893;28;20577;-91
2022/11/07 00:15:21;;;;;;;12.60;8.93;;;12.10;63.40;;;;;;5103515;28;20458;-90
2022/11/07 00:17:48;;;;;;;19.80;10.70;;;12.30;62.70;;;;;;5096920;28;20473;-89
2022/11/07 00:20:15;;;;;;;18.33;10.63;;;12.40;62.80;;;;;;5092661;28;20499;-86
2022/11/07 00:22:42;;;;;;;18.93;10.83;;;12.60;62.60;;;;;;5094089;28;20495;-89
2022/11/07 00:25:10;;;;;;;17.00;11.37;;;12.50;62.60;;;;;;5095144;28;20451;-88
2022/11/07 00:27:37;;;;;;;12.60;6.60;;;12.60;62.10;;;;;;5092519;28;20441;-89
2022/11/07 00:30:05;;;;;;;10.30;6.83;;;12.80;61.80;;;;;;5090355;28;20436;-88
2022/11/07 00:32:33;;;;;;;8.50;6.03;;;12.70;61.60;;;;;;5096216;28;20440;-87
2022/11/07 00:35:00;;;;;;;14.00;7.87;;;12.70;62.30;;;;;;5098730;28;20558;-88
2022/11/07 00:37:27;;;;;;;16.00;7.10;;;12.80;61.50;;;;;;5094958;28;20998;-87
2022/11/07 00:39:54;;;;;;;8.60;6.53;;;12.90;61.20;;;;;;5069989;28;20440;-88
2022/11/07 00:42:21;;;;;;;5.47;2.60;;;12.90;61.20;;;;;;5075118;28;20554;-90
2022/11/07 00:44:48;;;;;;;6.87;2.87;;;12.60;63.10;;;;;;5094751;28;22939;-91
2022/11/07 00:47:15;;;;;;;2.50;2.27;;;12.60;63.50;;;;;;5086670;28;20516;-88
2022/11/07 00:49:44;;;;;;;2.80;2.33;;;12.60;64.10;;;;;;5098281;28;20879;-87
2022/11/07 00:52:11;;;;;;;2.47;2.27;;;12.60;64.00;;;;;;5095076;28;20554;-87
2022/11/07 00:54:37;;;;;;;2.50;1.93;;;12.70;63.90;;;;;;5074329;28;20491;-87
2022/11/07 00:57:05;;;;;;;2.83;2.40;;;12.80;63.90;;;;;;5104758;28;20452;-88
2022/11/07 00:59:31;;;;;;;2.50;2.07;;;12.90;63.60;;;;;;5093698;28;20496;-88
2022/11/07 01:01:58;;;;;;;3.93;2.50;;;13.10;63.30;;;;;;5068993;28;20497;-90
2022/11/07 01:07:11;;;;;;;4.70;2.60;;;13.20;63.00;;;;;;5090049;28;21123;-88
2022/11/07 01:09:38;;;;;;;2.37;2.17;;;13.00;63.70;;;;;;5068274;28;21049;-88
2022/11/07 01:12:06;;;;;;;2.53;2.33;;;13.10;63.40;;;;;;5095443;28;20467;-88
2022/11/07 01:14:33;;;;;;;2.13;1.97;;;13.10;63.20;;;;;;5090761;28;20942;-91
2022/11/07 01:17:00;;;;;;;2.70;2.20;;;13.20;63.40;;;;;;5096094;28;20516;-87
2022/11/07 01:19:27;;;;;;;2.33;2.13;;;13.30;63.40;;;;;;5068543;28;20938;-89
2022/11/07 01:21:55;;;;;;;5.03;2.53;;;13.40;62.60;;;;;;5083403;28;20955;-88
2022/11/07 01:24:24;;;;;;;5.23;2.67;;;13.60;62.60;;;;;;5101505;28;21026;-88
2022/11/07 01:26:51;;;;;;;4.53;2.30;;;13.50;62.30;;;;;;5065713;28;20451;-86
2022/11/07 01:29:19;;;;;;;2.90;2.33;;;13.50;63.60;;;;;;5076239;28;20530;-89
2022/11/07 01:31:46;;;;;;;3.60;2.47;;;13.50;62.60;;;;;;5091565;28;20938;-88
2022/11/07 01:34:13;;;;;;;2.37;2.17;;;13.40;63.00;;;;;;5069523;28;20452;-88
2022/11/07 01:36:40;;;;;;;2.87;2.57;;;13.40;63.00;;;;;;5093361;28;20448;-90
2022/11/07 01:39:08;;;;;;;4.73;3.03;;;13.60;62.60;;;;;;5091205;28;21144;-87
2022/11/07 01:41:37;;;;;;;3.07;2.77;;;13.70;62.10;;;;;;5097733;28;21094;-87
2022/11/07 01:44:43;;;;;;;2.93;2.50;;;13.90;61.70;;;;;;5077394;28;21070;-89
2022/11/07 01:47:11;;;;;;;2.67;2.40;;;13.90;61.50;;;;;;5091249;28;21023;-89
2022/11/07 01:49:41;;;;;;;5.93;4.20;;;14.00;61.50;;;;;;5080707;28;20810;-90
2022/11/07 01:52:14;;;;;;;3.60;2.90;;;14.00;61.40;;;;;;5064580;28;20490;-90
2022/11/07 01:54:48;;;;;;;3.30;2.80;;;13.90;61.60;;;;;;5069254;28;20578;-89
2022/11/07 01:57:22;;;;;;;4.00;3.00;;;13.80;62.40;;;;;;5082031;28;20451;-90
2022/11/07 01:59:52;;;;;;;3.10;2.77;;;13.60;63.60;;;;;;5097660;28;20446;-89
2022/11/07 02:02:19;;;;;;;2.50;2.30;;;13.60;63.40;;;;;;5096379;28;20469;-89
2022/11/07 02:04:47;;;;;;;4.10;3.00;;;13.70;63.30;;;;;;5092762;28;20942;-87
2022/11/07 02:07:18;;;;;;;3.33;3.03;;;13.70;63.50;;;;;;5097520;28;20501;-91
2022/11/07 02:09:45;;;;;;;3.13;2.43;;;13.70;63.60;;;;;;5071628;28;21896;-87
2022/11/07 02:12:14;;;;;;;3.37;2.50;;;13.80;63.20;;;;;;5072564;28;20554;-86
2022/11/07 02:14:43;;;;;;;3.40;2.63;;;13.70;65.00;;;;;;5088226;28;20527;-89
2022/11/07 02:17:11;;;;;;;3.30;2.93;;;13.90;63.90;;;;;;5106868;28;20478;-87
2022/11/07 02:19:42;;;;;;;6.30;3.20;;;13.80;64.20;;;;;;5096195;28;20455;-90
2022/11/07 02:22:18;;;;;;;4.10;2.90;;;13.90;64.00;;;;;;5101844;28;20539;-89
2022/11/07 02:24:50;;;;;;;4.90;2.53;;;13.90;64.50;;;;;;5088148;28;20804;-88
2022/11/07 02:27:20;;;;;;;2.80;2.50;;;14.00;63.80;;;;;;5098177;28;20909;-87
2022/11/07 02:29:51;;;;;;;3.20;2.67;;;14.00;64.60;;;;;;5097589;28;20454;-91
2022/11/07 02:32:18;;;;;;;3.43;2.97;;;13.80;65.30;;;;;;5099173;28;20463;-91
2022/11/07 02:34:45;;;;;;;3.00;2.70;;;14.00;64.70;;;;;;5099140;28;20461;-92
2022/11/07 02:37:20;;;;;;;5.90;3.73;;;14.10;64.80;;;;;;5096746;28;20452;-88
2022/11/07 02:39:49;;;;;;;3.47;2.90;;;14.10;64.80;;;;;;5093902;28;20530;-88
2022/11/07 02:42:17;;;;;;;3.00;2.77;;;14.10;65.00;;;;;;5084563;28;20836;-87
2022/11/07 02:44:45;;;;;;;3.60;2.97;;;14.10;64.80;;;;;;5087750;28;20810;-89
2022/11/07 02:47:12;;;;;;;5.40;2.70;;;14.10;65.30;;;;;;5096790;28;20534;-87
2022/11/07 02:49:39;;;;;;;8.77;3.10;;;14.20;64.70;;;;;;5097006;28;20483;-91
2022/11/07 02:52:07;;;;;;;3.60;3.03;;;14.30;64.50;;;;;;5065652;28;21017;-87
2022/11/07 02:54:34;;;;;;;4.37;3.20;;;14.30;64.60;;;;;;5071135;28;20987;-90
2022/11/07 02:57:02;;;;;;;13.30;7.10;;;14.10;65.20;;;;;;5101108;28;20447;-88
2022/11/07 02:59:29;;;;;;;9.50;3.33;;;14.20;65.20;;;;;;5096948;28;20443;-88
2022/11/07 03:01:56;;;;;;;10.60;6.40;;;14.20;65.10;;;;;;5100376;28;20904;-88
2022/11/07 03:04:23;;;;;;;11.33;6.93;;;14.00;65.60;;;;;;5094374;28;20531;-88
2022/11/07 03:06:50;;;;;;;9.97;5.37;;;14.20;65.10;;;;;;5064779;28;20546;-91
2022/11/07 03:09:17;;;;;;;13.53;7.97;;;14.30;65.00;;;;;;5068915;28;20452;-89
2022/11/07 03:11:44;;;;;;;13.17;9.90;;;14.40;64.90;;;;;;5098205;28;20993;-91
2022/11/07 03:14:13;;;;;;;9.77;6.00;;;14.40;64.80;;;;;;5088716;28;20443;-89
2022/11/07 03:16:40;;;;;;;8.37;4.63;;;14.40;65.00;;;;;;5098744;28;20441;-87
2022/11/07 03:19:07;;;;;;;11.53;6.90;;;14.50;64.40;;;;;;5070732;28;20451;-88
2022/11/07 03:21:34;;;;;;;5.20;3.63;;;14.50;64.40;;;;;;5096307;28;20566;-88
2022/11/07 03:24:01;;;;;;;3.57;3.27;;;14.50;64.40;;;;;;5088699;28;20562;-90
2022/11/07 03:26:28;;;;;;;5.57;4.10;;;14.30;65.40;;;;;;5077288;28;20451;-88
2022/11/07 03:28:55;;;;;;;6.57;3.90;;;14.40;65.30;;;;;;5097375;28;20862;-88
2022/11/07 03:31:24;;;;;;;4.60;4.10;;;14.30;65.10;;;;;;5097784;28;20464;-88
2022/11/07 03:33:51;;;;;;;4.03;3.10;;;14.40;65.40;;;;;;5115420;27;20446;-87
2022/11/07 03:36:18;;;;;;;4.00;3.27;;;14.20;65.80;;;;;;5099415;28;20531;-90
2022/11/07 03:38:45;;;;;;;5.50;3.70;;;14.00;66.60;;;;;;5080469;28;20458;-88
2022/11/07 03:41:15;;;;;;;4.20;2.90;;;14.00;66.70;;;;;;5070908;28;20459;-87
2022/11/07 03:43:43;;;;;;;5.23;2.73;;;14.10;66.40;;;;;;5088073;28;20502;-88
2022/11/07 03:46:11;;;;;;;3.67;2.80;;;14.20;66.30;;;;;;5103124;27;20439;-90
2022/11/07 03:48:40;;;;;;;5.23;3.67;;;14.30;65.90;;;;;;5106292;28;20768;-87
2022/11/07 03:51:07;;;;;;;4.10;3.10;;;14.10;66.40;;;;;;5088759;28;20558;-88
2022/11/07 03:53:35;;;;;;;5.23;3.47;;;14.20;66.10;;;;;;5086930;28;20456;-88
2022/11/07 03:56:07;;;;;;;6.63;3.23;;;14.40;65.40;;;;;;5089363;28;20540;-88
2022/11/07 03:58:35;;;;;;;3.37;3.10;;;14.60;64.70;;;;;;5097969;28;20895;-87
2022/11/07 04:01:02;;;;;;;3.40;2.97;;;14.60;64.30;;;;;;5087375;28;20546;-89
2022/11/07 04:03:29;;;;;;;5.80;3.30;;;14.70;64.00;;;;;;5079339;28;20475;-88
2022/11/07 04:05:57;;;;;;;4.17;3.20;;;14.90;63.40;;;;;;5087102;28;20808;-90
2022/11/07 04:08:25;;;;;;;5.07;3.40;;;14.90;63.40;;;;;;5079600;28;20483;-93
2022/11/07 04:10:52;;;;;;;3.80;2.90;;;14.80;63.40;;;;;;5094781;28;20466;-92
2022/11/07 04:18:49;;;;;;;3.70;2.60;;;14.40;64.50;;;;;;5064175;28;20443;-88
2022/11/07 04:21:17;;;;;;;3.80;2.33;;;14.40;64.50;;;;;;5077187;28;20472;-92
2022/11/07 04:23:44;;;;;;;7.33;2.40;;;14.60;64.80;;;;;;5095633;28;20474;-88
2022/11/07 04:28:56;;;;;;;3.13;2.50;;;14.60;64.00;;;;;;5097383;28;20541;-88
2022/11/07 04:31:23;;;;;;;5.20;4.10;;;14.50;63.90;;;;;;5073546;28;20475;-88
2022/11/07 04:33:50;;;;;;;5.83;3.67;;;14.50;64.00;;;;;;5087903;28;20976;-90
2022/11/07 04:36:19;;;;;;;7.07;3.43;;;14.40;64.00;;;;;;5091050;28;20491;-90
2022/11/07 04:38:46;;;;;;;4.97;2.70;;;14.40;63.90;;;;;;5093273;28;20447;-91
2022/11/07 04:41:21;;;;;;;4.00;2.30;;;14.40;63.90;;;;;;5066389;28;20475;-88
2022/11/07 04:43:48;;;;;;;5.23;2.47;;;14.30;64.00;;;;;;5093011;27;20911;-87
2022/11/07 04:46:16;;;;;;;2.10;1.90;;;14.10;64.50;;;;;;5103324;28;20452;-90
2022/11/07 04:48:44;;;;;;;3.60;2.37;;;14.00;65.20;;;;;;5074169;28;21215;-87
2022/11/07 04:51:14;;;;;;;2.80;2.20;;;14.10;65.00;;;;;;5103111;28;20561;-90
2022/11/07 04:53:43;;;;;;;4.30;2.40;;;14.10;64.90;;;;;;5068510;28;20461;-89
2022/11/07 04:56:10;;;;;;;2.47;2.27;;;14.20;64.50;;;;;;5054446;28;20451;-88
2022/11/07 04:58:37;;;;;;;4.53;2.50;;;14.20;64.90;;;;;;5090599;28;20444;-87
2022/11/07 05:01:04;;;;;;;4.63;2.10;;;14.40;64.30;;;;;;5061110;28;20472;-87
2022/11/07 05:03:32;;;;;;;4.03;2.23;;;14.50;64.00;;;;;;5085551;28;20853;-88
2022/11/07 05:05:59;;;;;;;12.43;4.50;;;14.60;63.40;;;;;;5075278;28;20543;-88
2022/11/07 05:08:26;;;;;;;5.20;2.57;;;14.50;63.80;;;;;;5071522;28;20454;-90
2022/11/07 05:10:55;;;;;;;3.37;2.77;;;14.30;63.90;;;;;;5084206;28;20494;-91
2022/11/07 05:13:22;;;;;;;8.63;4.03;;;14.30;64.20;;;;;;5056492;28;20443;-89
2022/11/07 05:15:50;;;;;;;6.73;3.87;;;14.50;63.80;;;;;;5064245;28;20466;-88
2022/11/07 05:18:20;;;;;;;2.47;2.23;;;14.60;63.60;;;;;;5067395;28;20451;-89
2022/11/07 05:20:47;;;;;;;3.53;2.37;;;14.70;63.20;;;;;;5066981;28;20555;-89
2022/11/07 05:23:16;;;;;;;2.30;2.10;;;14.80;62.80;;;;;;5084124;28;20472;-90
2022/11/07 05:25:45;;;;;;;3.90;2.30;;;14.70;62.70;;;;;;5084200;28;20454;-90
2022/11/07 05:28:16;;;;;;;5.53;2.23;;;14.60;63.20;;;;;;5065240;28;20955;-92
2022/11/07 05:30:44;;;;;;;3.33;2.10;;;14.80;62.80;;;;;;5076787;28;20562;-90
2022/11/07 05:33:13;;;;;;;2.30;1.87;;;14.90;62.70;;;;;;5076567;28;20447;-90
2022/11/07 05:35:41;;;;;;;4.20;1.80;;;14.60;63.20;;;;;;5066135;28;20866;-89
2022/11/07 05:38:08;;;;;;;4.40;2.43;;;14.70;63.00;;;;;;5076803;28;20444;-88
2022/11/07 05:40:37;;;;;;;4.93;2.37;;;14.70;63.30;;;;;;5076725;28;20483;-87
2022/11/07 05:43:05;;;;;;;2.40;2.03;;;14.70;63.50;;;;;;5062076;28;20575;-89
2022/11/07 05:45:36;;;;;;;2.63;2.37;;;14.70;63.00;;;;;;5096947;28;20950;-91
2022/11/07 05:48:06;;;;;;;6.13;2.27;;;14.70;63.10;;;;;;5067791;28;20984;-91
2022/11/07 05:50:33;;;;;;;3.30;1.80;;;14.90;62.80;;;;;;5100916;28;20532;-89
2022/11/07 05:53:01;;;;;;;5.93;2.47;;;14.90;62.70;;;;;;5100581;28;20435;-86
2022/11/07 05:55:28;;;;;;;2.67;2.47;;;14.90;62.50;;;;;;5102366;28;20525;-86
2022/11/07 05:57:55;;;;;;;5.40;2.20;;;14.90;62.70;;;;;;5066516;28;20443;-87
2022/11/07 06:00:23;;;;;;;3.03;2.60;;;14.60;63.20;;;;;;5070436;28;20554;-88
2022/11/07 06:02:56;;;;;;;2.93;2.73;;;14.50;64.20;;;;;;5071421;28;20439;-89
2022/11/07 06:05:24;;;;;;;2.30;2.10;;;14.70;63.90;;;;;;5055496;28;20448;-89
2022/11/07 06:07:51;;;;;;;3.27;2.40;;;14.60;64.00;;;;;;5083301;28;20543;-88
2022/11/07 06:10:18;;;;;;;2.87;2.40;;;14.70;63.80;;;;;;5098572;28;20467;-89
2022/11/07 06:12:45;;;;;;;4.40;2.60;;;14.90;63.40;;;;;;5087664;28;20524;-88
2022/11/07 06:15:12;;;;;;;2.07;1.87;;;14.90;63.10;;;;;;5103259;28;20539;-89
2022/11/07 06:17:40;;;;;;;7.10;2.43;;;14.90;62.90;;;;;;5101503;28;20516;-88
2022/11/07 06:20:09;;;;;;;2.83;2.00;;;14.70;63.60;;;;;;5086990;28;20538;-88
2022/11/07 06:22:36;;;;;;;3.33;2.10;;;14.50;63.80;;;;;;5079070;28;20446;-90
2022/11/07 06:25:04;;;;;;;3.33;2.67;;;14.40;64.70;;;;;;5050106;28;20490;-88
2022/11/07 06:27:31;;;;;;;5.70;2.70;;;14.30;65.10;;;;;;5066747;28;20455;-88
2022/11/07 06:29:58;;;;;;;4.00;2.20;;;14.40;65.10;;;;;;5085224;28;20679;-91
2022/11/07 06:32:25;;;;;;;5.60;2.43;;;14.40;65.30;;;;;;5062523;28;20517;-88
2022/11/07 06:34:52;;;;;;;5.07;2.40;;;14.30;65.50;;;;;;5060217;28;20922;-90
2022/11/07 06:37:21;;;;;;;6.33;2.50;;;14.40;65.50;;;;;;5077386;28;20458;-89
2022/11/07 06:39:48;;;;;;;2.57;2.10;;;14.30;65.20;;;;;;5098062;27;20446;-87
2022/11/07 06:42:15;;;;;;;6.70;2.50;;;14.40;65.40;;;;;;5064674;28;20881;-91
2022/11/07 06:44:42;;;;;;;3.97;2.07;;;14.60;64.90;;;;;;5078890;28;20467;-90
2022/11/07 06:47:10;;;;;;;7.27;2.40;;;14.40;64.90;;;;;;5070727;28;20544;-88
2022/11/07 06:49:38;;;;;;;3.13;2.10;;;14.50;65.00;;;;;;5052453;28;20974;-91
2022/11/07 06:52:05;;;;;;;3.50;1.70;;;14.50;64.90;;;;;;5098198;28;20467;-92
2022/11/07 06:54:34;;;;;;;6.90;3.30;;;14.60;64.60;;;;;;5062687;28;20443;-88
2022/11/07 06:57:01;;;;;;;3.00;1.70;;;14.80;63.70;;;;;;5052699;28;20572;-89
2022/11/07 06:59:28;;;;;;;11.07;6.40;;;14.90;63.70;;;;;;5062371;28;20450;-88
2022/11/07 07:01:55;;;;;;;18.53;4.70;;;15.00;63.10;;;;;;5095093;28;20739;-88
2022/11/07 07:04:22;;;;;;;2.60;2.40;;;15.00;62.80;;;;;;5048099;28;20460;-88
2022/11/07 07:06:49;;;;;;;5.67;2.80;;;14.90;63.20;;;;;;5079926;28;21080;-89
2022/11/07 07:09:16;;;;;;;3.00;2.00;;;15.10;62.90;;;;;;5083149;28;20943;-90
2022/11/07 07:11:45;;;;;;;4.90;2.87;;;15.20;62.80;;;;;;5049137;28;20483;-90
2022/11/07 07:14:12;;;;;;;4.80;1.90;;;15.40;62.30;;;;;;5091432;28;20583;-89
2022/11/07 07:16:39;;;;;;;6.13;1.87;;;15.30;61.90;;;;;;5069600;28;20811;-89
2022/11/07 07:19:06;;;;;;;3.13;1.60;;;15.10;62.40;;;;;;5079571;28;20544;-91
2022/11/07 07:21:34;;;;;;;2.17;1.97;;;15.20;62.40;;;;;;5065472;28;21116;-89
2022/11/07 07:24:01;;;;;;;9.10;3.57;;;15.00;62.20;;;;;;5069251;28;21343;-89
2022/11/07 07:26:28;;;;;;;4.20;2.37;;;15.00;62.30;;;;;;5069914;28;20655;-89
2022/11/07 07:28:57;;;;;;;6.57;4.63;;;14.80;63.50;;;;;;5075230;28;20447;-89
2022/11/07 07:31:27;;;;;;;4.70;2.03;;;15.00;63.20;;;;;;5100807;28;20463;-89
2022/11/07 07:33:55;;;;;;;3.80;1.93;;;15.00;62.90;;;;;;5083438;28;20451;-94
2022/11/07 07:36:23;;;;;;;3.00;2.80;;;15.20;62.40;;;;;;5072807;28;20463;-91
2022/11/07 07:38:51;;;;;;;4.20;3.80;;;15.20;62.30;;;;;;5069137;28;20885;-90
2022/11/07 07:41:19;;;;;;;5.53;2.70;;;15.10;62.90;;;;;;5069142;28;20480;-92
2022/11/07 07:43:46;;;;;;;5.60;2.20;;;15.10;62.80;;;;;;5059866;28;20468;-89
2022/11/07 07:46:16;;;;;;;3.87;2.93;;;15.30;62.90;;;;;;5073084;28;20450;-90
2022/11/07 07:48:43;;;;;;;2.97;2.50;;;15.30;61.40;;;;;;5080518;28;20446;-90
2022/11/07 07:51:10;;;;;;;2.23;1.80;;;15.50;61.90;;;;;;5068600;28;20466;-89
2022/11/07 07:53:38;;;;;;;3.07;1.50;;;15.50;61.20;;;;;;5100285;28;20472;-89
2022/11/07 07:56:06;;;;;;;4.73;1.97;;;15.50;61.30;;;;;;5082459;28;20446;-91
2022/11/07 07:58:33;;;;;;;6.00;1.83;;;15.60;60.80;;;;;;5080168;28;20528;-88
2022/11/07 08:01:00;;;;;;;2.10;1.27;;;15.70;60.90;;;;;;5102036;28;20463;-90
2022/11/07 08:03:29;;;;;;;2.40;2.20;;;15.80;61.10;;;;;;5056127;28;20517;-89
2022/11/07 08:05:58;;;;;;;5.67;2.43;;;15.70;60.40;;;;;;5068286;28;20508;-90
2022/11/07 08:08:25;;;;;;;3.20;1.40;;;15.90;59.90;;;;;;5061900;28;20835;-90
2022/11/07 08:10:53;;;;;;;3.67;1.60;;;15.80;59.80;;;;;;5072145;28;20479;-91
2022/11/07 08:13:22;;;;;;;2.63;1.30;;;15.80;60.10;;;;;;5073426;28;20796;-89
2022/11/07 08:15:49;;;;;;;3.13;1.37;;;15.80;59.80;;;;;;5040036;28;20513;-91
2022/11/07 08:18:18;;;;;;;5.27;2.10;;;15.90;59.80;;;;;;5080248;28;20518;-92
2022/11/07 08:20:47;;;;;;;3.97;1.60;;;16.10;59.50;;;;;;5045745;28;20467;-89
2022/11/07 08:23:14;;;;;;;4.43;1.80;;;15.80;59.40;;;;;;5076861;28;20991;-91
2022/11/07 08:25:41;;;;;;;5.63;2.27;;;16.00;60.10;;;;;;5072602;28;20503;-90
2022/11/07 08:28:08;;;;;;;4.63;2.50;;;16.10;59.70;;;;;;5071041;28;20512;-88
2022/11/07 08:30:35;;;;;;;4.10;1.83;;;16.10;59.40;;;;;;5055243;28;20451;-89
2022/11/07 08:33:03;;;;;;;5.50;1.60;;;16.10;59.50;;;;;;5095414;28;20447;-89
2022/11/07 08:35:30;;;;;;;20.73;6.67;;;15.90;60.10;;;;;;5069248;28;20488;-92
2022/11/07 08:37:59;;;;;;;2.30;2.10;;;16.00;59.70;;;;;;5059881;28;20570;-90
2022/11/07 08:40:26;;;;;;;3.73;2.07;;;16.00;60.40;;;;;;5048665;28;20855;-89
2022/11/07 08:42:59;;;;;;;7.50;4.77;;;16.10;60.60;;;;;;5087778;28;20458;-89
2022/11/07 08:45:26;;;;;;;3.60;1.57;;;16.00;59.50;;;;;;5074073;28;20462;-89
2022/11/07 08:47:57;;;;;;;11.43;7.77;;;16.00;59.70;;;;;;5055215;28;20811;-91
2022/11/07 08:50:24;;;;;;;3.27;2.20;;;16.10;59.60;;;;;;5079507;28;20829;-89
2022/11/07 08:52:51;;;;;;;3.70;2.80;;;16.10;59.60;;;;;;5067825;28;20455;-92
2022/11/07 08:55:20;;;;;;;8.50;2.10;;;16.00;60.10;;;;;;5096463;28;20586;-88
2022/11/07 08:57:47;;;;;;;10.53;8.07;;;16.30;60.10;;;;;;5076615;28;20532;-89
2022/11/07 09:00:14;;;;;;;2.93;2.50;;;16.40;59.00;;;;;;5094165;28;20447;-91
2022/11/07 09:02:42;;;;;;;1.60;1.50;;;16.60;59.10;;;;;;5092253;28;20943;-92
2022/11/07 09:05:10;;;;;;;6.20;3.70;;;16.80;58.90;;;;;;5076960;28;20852;-87
2022/11/07 09:07:39;;;;;;;3.33;2.90;;;16.80;58.30;;;;;;5073200;28;20496;-90
2022/11/07 09:10:07;;;;;;;7.13;6.30;;;16.90;58.70;;;;;;5062028;28;20936;-91
2022/11/07 09:12:35;;;;;;;6.33;5.63;;;16.80;58.20;;;;;;5076074;28;20463;-92
2022/11/07 09:15:04;;;;;;;3.10;1.70;;;16.80;58.40;;;;;;5091579;28;20455;-90
2022/11/07 09:17:31;;;;;;;15.03;2.00;;;16.70;58.70;;;;;;5050304;28;20455;-90
2022/11/07 09:19:58;;;;;;;4.27;1.90;;;17.00;58.50;;;;;;5067909;28;20478;-89
2022/11/07 09:22:26;;;;;;;3.97;1.70;;;17.10;58.10;;;;;;5046902;28;20447;-88
2022/11/07 09:24:53;;;;;;;4.67;2.00;;;17.20;57.70;;;;;;5053378;28;20566;-90
2022/11/07 09:27:20;;;;;;;6.20;1.83;;;17.30;57.20;;;;;;5085565;28;20478;-89
2022/11/07 09:29:48;;;;;;;3.83;2.63;;;17.10;57.40;;;;;;5045507;28;20455;-92
2022/11/07 09:32:15;;;;;;;3.10;1.90;;;17.00;57.10;;;;;;5061755;28;20858;-90
2022/11/07 09:34:43;;;;;;;5.67;1.50;;;16.90;57.90;;;;;;5050142;28;20454;-88
2022/11/07 09:37:10;;;;;;;10.10;2.17;;;16.70;57.50;;;;;;5095829;28;20451;-88
2022/11/07 09:39:38;;;;;;;1.70;1.13;;;16.70;58.30;;;;;;5065243;28;20447;-92
2022/11/07 09:42:18;;;;;;;1.30;1.20;;;16.70;57.90;;;;;;5094276;28;20508;-90
2022/11/07 09:44:54;;;;;;;4.30;1.60;;;16.70;57.50;;;;;;5094073;28;20474;-93
2022/11/07 09:47:26;;;;;;;1.77;1.50;;;16.80;57.70;;;;;;5061670;28;20566;-89
2022/11/07 09:49:58;;;;;;;2.47;1.20;;;16.80;57.30;;;;;;5064922;28;20542;-89
2022/11/07 09:52:34;;;;;;;3.20;1.60;;;16.80;57.40;;;;;;5086681;28;20562;-89
2022/11/07 09:55:07;;;;;;;4.97;2.07;;;16.90;56.90;;;;;;5079884;28;20473;-89
2022/11/07 09:57:37;;;;;;;9.30;2.50;;;17.10;57.10;;;;;;5069522;28;20500;-90
2022/11/07 10:00:09;;;;;;;3.00;2.40;;;17.30;57.00;;;;;;5068385;28;20860;-89
2022/11/07 10:02:42;;;;;;;5.50;1.87;;;17.40;55.80;;;;;;5079995;28;20518;-91
2022/11/07 10:05:14;;;;;;;4.53;1.80;;;17.60;56.00;;;;;;5079684;28;20455;-88
2022/11/07 10:07:51;;;;;;;5.03;1.80;;;17.60;56.80;;;;;;5074807;28;20444;-89
2022/11/07 10:10:22;;;;;;;3.47;1.47;;;17.60;56.40;;;;;;5077032;28;20540;-88
2022/11/07 10:13:14;;;;;;;9.47;2.23;;;17.40;57.40;;;;;;5051643;28;21021;-91
2022/11/07 10:15:54;;;;;;;7.80;3.47;;;17.50;57.10;;;;;;5096631;28;20443;-89
2022/11/07 10:18:32;;;;;;;6.90;1.70;;;17.60;57.10;;;;;;5081573;28;20443;-93
2022/11/07 10:21:06;;;;;;;5.00;2.40;;;17.80;56.80;;;;;;5069837;28;20468;-91
2022/11/07 10:23:46;;;;;;;7.23;2.63;;;17.80;56.70;;;;;;5068887;28;20454;-92
2022/11/07 10:26:15;;;;;;;4.03;1.50;;;17.80;56.70;;;;;;5082519;28;20491;-92
2022/11/07 10:28:45;;;;;;;6.63;2.50;;;17.80;56.40;;;;;;5060507;28;20534;-89
2022/11/07 10:31:15;;;;;;;4.93;2.13;;;17.90;57.50;;;;;;5098521;28;20512;-89
2022/11/07 10:33:49;;;;;;;7.53;2.93;;;17.90;55.90;;;;;;5070858;28;20546;-89
2022/11/07 10:36:22;;;;;;;3.90;1.80;;;17.70;56.50;;;;;;5063790;28;20582;-89
2022/11/07 10:38:50;;;;;;;7.60;2.63;;;17.70;56.50;;;;;;5062796;28;20450;-91
2022/11/07 10:41:19;;;;;;;4.33;2.10;;;17.60;56.70;;;;;;5095982;28;20554;-89
2022/11/07 10:43:51;;;;;;;8.47;4.00;;;17.80;57.20;;;;;;5078437;28;20863;-88
2022/11/07 10:46:23;;;;;;;4.10;2.13;;;17.70;57.20;;;;;;5062344;28;20460;-89
2022/11/07 10:48:52;;;;;;;4.63;1.80;;;17.60;57.10;;;;;;5076641;28;20480;-88
2022/11/07 10:51:19;;;;;;;6.03;1.60;;;17.50;57.60;;;;;;5082022;28;20459;-89
2022/11/07 10:53:46;;;;;;;3.83;1.67;;;17.40;58.00;;;;;;5096546;28;20503;-88
2022/11/07 10:56:14;;;;;;;6.20;2.13;;;17.20;59.10;;;;;;5081926;28;20439;-89
2022/11/07 10:58:46;;;;;;;4.37;1.67;;;17.30;60.10;;;;;;5081815;28;20483;-87
2022/11/07 11:01:13;;;;;;;2.30;1.27;;;17.00;60.70;;;;;;5101369;28;20502;-90
2022/11/07 11:03:43;;;;;;;11.30;2.80;;;16.70;62.30;;;;;;5080896;28;20482;-91
2022/11/07 11:06:21;;;;;;;5.43;1.47;;;16.70;63.00;;;;;;5089193;28;20490;-88
2022/11/07 11:08:50;;;;;;;3.90;1.80;;;16.80;63.00;;;;;;5065623;28;20443;-90
2022/11/07 11:11:28;;;;;;;4.13;1.70;;;16.80;63.50;;;;;;5062295;28;21021;-90
2022/11/07 11:14:04;;;;;;;2.67;1.83;;;16.80;63.80;;;;;;5072828;28;20453;-88
2022/11/07 11:16:35;;;;;;;4.43;2.13;;;16.60;63.60;;;;;;5078143;28;20451;-89
2022/11/07 11:19:05;;;;;;;3.97;1.77;;;16.60;64.20;;;;;;5096190;28;20541;-92
2022/11/07 11:21:40;;;;;;;2.60;1.90;;;16.70;63.60;;;;;;5077010;28;20475;-89
2022/11/07 11:24:15;;;;;;;11.53;3.20;;;16.70;64.20;;;;;;5082310;28;20454;-88
2022/11/07 11:26:44;;;;;;;3.67;2.03;;;16.70;63.50;;;;;;5066529;28;20423;-91
2022/11/07 11:29:14;;;;;;;4.93;2.30;;;16.80;64.20;;;;;;5081681;28;20455;-90
2022/11/07 11:31:46;;;;;;;4.63;1.80;;;16.80;63.40;;;;;;5047623;28;20494;-88
2022/11/07 11:34:19;;;;;;;6.00;2.70;;;16.80;63.00;;;;;;5051191;28;20486;-89
2022/11/07 11:36:55;;;;;;;2.77;1.70;;;16.70;64.20;;;;;;5081056;28;20540;-87
2022/11/07 11:39:29;;;;;;;4.37;1.60;;;16.40;64.20;;;;;;5072380;28;20836;-88
2022/11/07 11:41:58;;;;;;;3.00;2.13;;;16.80;63.90;;;;;;5078329;28;20500;-88
2022/11/07 11:44:35;;;;;;;2.33;1.90;;;17.00;62.90;;;;;;5053844;28;20951;-91
2022/11/07 11:47:10;;;;;;;2.90;1.80;;;17.10;62.80;;;;;;5101726;28;20454;-92
2022/11/07 11:49:43;;;;;;;4.30;1.77;;;17.30;61.10;;;;;;5080683;28;20533;-91
2022/11/07 11:52:16;;;;;;;6.30;2.07;;;17.50;61.20;;;;;;5067904;28;20506;-88
2022/11/07 11:54:44;;;;;;;4.40;1.70;;;17.70;60.70;;;;;;5077501;28;20458;-88
2022/11/07 11:57:16;;;;;;;6.40;3.53;;;18.00;59.10;;;;;;5052787;28;20530;-89
2022/11/07 12:00:05;;;;;;;9.30;2.60;;;17.80;59.60;;;;;;5079571;28;21320;-89
2022/11/07 12:03:08;;;;;;;4.87;2.20;;;17.70;60.20;;;;;;5085339;28;20811;-89
2022/11/07 12:06:12;;;;;;;20.57;8.43;;;17.90;59.40;;;;;;5077397;28;20476;-89
2022/11/07 12:09:02;;;;;;;10.77;3.50;;;17.90;59.10;;;;;;5096552;28;20946;-89
2022/11/07 12:11:38;;;;;;;5.50;2.30;;;17.80;58.50;;;;;;5065335;28;20529;-92
2022/11/07 12:14:21;;;;;;;10.03;3.20;;;17.90;59.40;;;;;;5077228;28;20450;-88
2022/11/07 12:16:56;;;;;;;6.97;3.30;;;18.00;59.10;;;;;;5095183;28;22022;-89
2022/11/07 12:19:29;;;;;;;4.90;2.33;;;18.10;58.90;;;;;;5078719;28;21409;-88
2022/11/07 12:22:06;;;;;;;8.63;3.00;;;18.20;58.60;;;;;;5064188;28;20553;-88
2022/11/07 12:24:45;;;;;;;7.50;3.33;;;18.10;58.20;;;;;;5050598;28;20500;-91
2022/11/07 12:27:20;;;;;;;9.23;2.93;;;18.20;57.50;;;;;;5046136;28;20459;-89
2022/11/07 12:30:04;;;;;;;8.77;2.10;;;18.30;58.10;;;;;;5079195;28;20491;-88
2022/11/07 12:32:42;;;;;;;5.80;1.90;;;17.90;57.80;;;;;;5065212;28;20450;-88
2022/11/07 12:35:33;;;;;;;4.50;2.10;;;17.70;59.10;;;;;;5060924;28;20455;-90
2022/11/07 12:38:24;;;;;;;6.77;2.20;;;17.50;59.10;;;;;;5066667;28;20491;-89
2022/11/07 12:41:01;;;;;;;6.50;2.77;;;17.60;59.50;;;;;;5078241;28;20485;-88
2022/11/07 12:43:39;;;;;;;4.20;2.07;;;17.50;59.20;;;;;;5052784;28;20443;-88
2022/11/07 12:46:14;;;;;;;5.40;2.20;;;17.60;59.10;;;;;;5087473;28;20498;-86
2022/11/07 12:49:27;;;;;;;3.90;2.20;;;17.70;58.80;;;;;;5065028;28;20454;-88
2022/11/07 12:52:04;;;;;;;5.20;2.90;;;17.70;58.90;;;;;;5069310;28;20512;-89
2022/11/07 12:54:49;;;;;;;8.13;3.87;;;17.70;58.60;;;;;;5066430;28;20504;-89
2022/11/07 12:57:20;;;;;;;7.03;2.33;;;17.80;58.50;;;;;;5080276;28;20527;-90
2022/11/07 12:59:52;;;;;;;4.13;2.00;;;17.90;58.60;;;;;;5084516;28;20538;-89
2022/11/07 13:02:34;;;;;;;6.70;2.13;;;17.90;58.20;;;;;;5081634;28;20552;-91
2022/11/07 13:05:13;;;;;;;1.97;1.63;;;17.90;58.00;;;;;;5085037;28;20455;-88
2022/11/07 13:07:45;;;;;;;3.30;1.77;;;17.80;58.00;;;;;;5095154;28;20534;-89
2022/11/07 13:10:19;;;;;;;4.70;1.97;;;17.80;58.00;;;;;;5099213;28;20529;-89